Home > Products > Valid Products > MTR

000
SAUS45 KREV 030157
MTRDRA
METAR KDRA 030152Z AUTO 23014G21KT 10SM CLR 34/M06 A2979 RMK AO2
SLP037 T03391061





000
SAUS45 KREV 030057
MTRDRA
METAR KDRA 030052Z AUTO 20015G20KT 10SM CLR 36/M03 A2979 RMK AO2
SLP035 T03611033





000
SAUS45 KREV 022357
MTRDRA
METAR KDRA 022352Z AUTO 21013G21KT 10SM CLR 37/M03 A2979 RMK AO2
SLP035 T03671033 10383 20333 56020





000
SAUS45 KREV 022257
MTRDRA
METAR KDRA 022252Z AUTO 23018G24KT 10SM CLR 38/M04 A2980 RMK AO2 PK
WND 21028/2209 SLP037 T03781039





000
SAUS45 KREV 022157
MTRDRA
METAR KDRA 022152Z AUTO 23016G24KT 10SM CLR 38/M04 A2983 RMK AO2 PK
WND 23026/2139 SLP042 T03831039





000
SAUS45 KREV 022057
MTRDRA
METAR KDRA 022052Z AUTO 24016G23KT 10SM CLR 37/M02 A2986 RMK AO2
SLP054 T03721022 58022





000
SAUS45 KREV 021957
MTRDRA
METAR KDRA 021952Z AUTO 25012G20KT 10SM CLR 37/M02 A2989 RMK AO2
SLP065 T03671022





000
SAUS45 KREV 021857
MTRDRA
METAR KDRA 021852Z AUTO 24010G19KT 10SM CLR 35/M02 A2991 RMK AO2
SLP073 T03501017





000
SAUS45 KREV 021757
MTRDRA
METAR KDRA 021752Z AUTO 10SM CLR 33/M02 A2993 RMK AO2 SLP081
T03331017 10339 20189 58004





000
SAUS45 KREV 021657
MTRDRA
METAR KDRA 021652Z AUTO VRB04KT 10SM CLR 32/M01 A2994 RMK AO2 SLP085
T03171006





000
SAUS45 KREV 021557
MTRDRA
METAR KDRA 021552Z AUTO 00000KT 10SM CLR 28/M01 A2994 RMK AO2 SLP086
T02781006





000
SAUS45 KREV 021457
MTRDRA
METAR KDRA 021452Z AUTO 00000KT 10SM CLR 24/M01 A2995 RMK AO2 SLP088
T02391006 51013





000
SAUS45 KREV 021257
MTRDRA
METAR KDRA 021252Z AUTO 10003KT 10SM CLR 20/M01 A2992 RMK AO2 SLP079
T02001006





000
SAUS45 KREV 021157
MTRDRA
METAR KDRA 021152Z AUTO 00000KT 10SM CLR 21/M01 A2991 RMK AO2 SLP074
T02111011 10267 20211 51007





000
SAUS45 KREV 021057
MTRDRA
METAR KDRA 021052Z AUTO 00000KT 10SM CLR 21/M01 A2990 RMK AO2 SLP072
T02111011





000
SAUS45 KREV 020957
MTRDRA
METAR KDRA 020952Z AUTO 03005KT 10SM CLR 24/M02 A2990 RMK AO2 SLP067
T02441017





000
SAUS45 KREV 020857
MTRDRA
METAR KDRA 020852Z AUTO 09007KT 10SM CLR 24/M01 A2988 RMK AO2 SLP064
T02391011 58001





000
SAUS45 KREV 020757
MTRDRA
METAR KDRA 020752Z AUTO 04004KT 10SM CLR 24/M01 A2989 RMK AO2 SLP066
T02441011 403720172





000
SAUS45 KREV 020657
MTRDRA
METAR KDRA 020652Z AUTO 00000KT 10SM CLR 26/M02 A2988 RMK AO2 SLP063
T02611017





000
SAUS45 KREV 020557
MTRDRA
METAR KDRA 020552Z AUTO 06003KT 10SM CLR 27/M02 A2989 RMK AO2 SLP066
T02671017 10372 20256 51010





000
SAUS45 KREV 020457
MTRDRA
METAR KDRA 020452Z AUTO 03006KT 10SM CLR 27/M02 A2988 RMK AO2 SLP067
T02721022





000
SAUS45 KREV 020357
MTRDRA
METAR KDRA 020352Z AUTO 01004KT 10SM CLR 31/M03 A2987 RMK AO2 SLP063
T03061028





000
SAUS45 KREV 020357
MTRDRA
METAR KDRA 020352Z AUTO 01004KT 10SM CLR 31/M03 A2987 RMK AO2 SLP063
T03061028





000
SAUS45 KREV 020256
MTRDRA
METAR KDRA 020252Z AUTO 25006KT 10SM CLR 32/M03 A2985 RMK AO2 SLP058
T03221033 53004





000
SAUS45 KREV 020157
MTRDRA
METAR KDRA 020152Z AUTO 25010KT 10SM CLR 34/M03 A2984 RMK AO2 SLP053
T03441033





000
SAUS45 KREV 020057
MTRDRA
METAR KDRA 020052Z AUTO 28010KT 10SM CLR 37/M04 A2983 RMK AO2 SLP051
T03671039





000
SAUS45 KREV 012356
MTRDRA
METAR KDRA 012352Z AUTO 23011KT 10SM CLR 37/M04 A2984 RMK AO2 SLP052
T03671039 10372 20328 56016





000
SAUS45 KREV 012257
MTRDRA
METAR KDRA 012252Z AUTO VRB03KT 10SM CLR 37/M04 A2985 RMK AO2 SLP058
T03671039





000
SAUS45 KREV 012157
MTRDRA
METAR KDRA 012152Z AUTO VRB03KT 10SM CLR 37/M04 A2987 RMK AO2 SLP063
T03671039





000
SAUS45 KREV 012057
MTRDRA
METAR KDRA 012052Z AUTO 25008G17KT 10SM CLR 36/M04 A2989 RMK AO2
SLP068 T03611039 58015





000
SAUS45 KREV 011957
MTRDRA
METAR KDRA 011952Z AUTO VRB03KT 10SM CLR 36/M04 A2991 RMK AO2 SLP073
T03561044





000
SAUS45 KREV 011857
MTRDRA
METAR KDRA 011852Z AUTO 20006KT 10SM CLR 34/M05 A2993 RMK AO2 SLP080
T03441050





000
SAUS45 KREV 011757
MTRDRA
METAR KDRA 011752Z AUTO VRB04KT 10SM CLR 33/M04 A2994 RMK AO2 SLP085
T03281039 10328 20172 50003





000
SAUS45 KREV 011657
MTRDRA
METAR KDRA 011652Z AUTO 25006KT 10SM CLR 31/M03 A2994 RMK AO2 SLP086
T03061033





000
SAUS45 KREV 011557
MTRDRA
METAR KDRA 011552Z AUTO 00000KT 10SM CLR 27/M01 A2994 RMK AO2 SLP087
T02721011





000
SAUS45 KREV 011457
MTRDRA
METAR KDRA 011452Z AUTO 00000KT 10SM CLR 23/M01 A2993 RMK AO2 SLP086
T02331011 51012





000
SAUS45 KREV 011257
MTRDRA
METAR KDRA 011252Z AUTO 00000KT 10SM CLR 19/M01 A2990 RMK AO2 SLP077
T01891011





000
SAUS45 KREV 011157
MTRDRA
METAR KDRA 011152Z AUTO 11003KT 10SM CLR 20/M01 A2989 RMK AO2 SLP069
T02001011 10261 20189 53010





000
SAUS45 KREV 011057
MTRDRA
METAR KDRA 011052Z AUTO 00000KT 10SM CLR 19/M01 A2987 RMK AO2 SLP066
T01891011





000
SAUS45 KREV 010957
MTRDRA
METAR KDRA 010952Z AUTO 00000KT 10SM CLR 21/M01 A2986 RMK AO2 SLP060
T02061011





000
SAUS45 KREV 010857
MTRDRA
METAR KDRA 010852Z AUTO 11003KT 10SM CLR 23/M01 A2986 RMK AO2 SLP056
T02281011 50003





000
SAUS45 KREV 010757
MTRDRA
METAR KDRA 010752Z AUTO 04004KT 10SM CLR 24/M01 A2986 RMK AO2 SLP057
T02391011 403670183





000
SAUS45 KREV 010657
MTRDRA
METAR KDRA 010652Z AUTO 04005KT 10SM CLR 25/M01 A2985 RMK AO2 SLP055
T02501011





000
SAUS45 KREV 010557
MTRDRA
METAR KDRA 010552Z AUTO 09006KT 10SM CLR 26/M02 A2985 RMK AO2 SLP054
T02561017 10361 20250 51008





000
SAUS45 KREV 010457
MTRDRA
METAR KDRA 010452Z AUTO 03007KT 10SM CLR 27/M03 A2984 RMK AO2 SLP053
T02671028





000
SAUS45 KREV 010357
MTRDRA
METAR KDRA 010352Z AUTO 00000KT 10SM CLR 28/M03 A2984 RMK AO2 SLP051
T02831033





000
SAUS45 KREV 010257
MTRDRA
METAR KDRA 010252Z AUTO 36003KT 10SM CLR 31/M04 A2982 RMK AO2 SLP049
T03061039 53001





000
SAUS45 KREV 010157
MTRDRA
METAR KDRA 010152Z AUTO 25007KT 10SM CLR 34/M04 A2981 RMK AO2 SLP047
T03391039





000
SAUS45 KREV 010157
MTRDRA
METAR KDRA 010152Z AUTO 25007KT 10SM CLR 34/M04 A2981 RMK AO2 SLP047
T03391039





000
SAUS45 KREV 010057
MTRDRA
METAR KDRA 010052Z AUTO 25008KT 10SM CLR 36/M03 A2981 RMK AO2 SLP043
T03561033





000
SAUS45 KREV 312357
MTRDRA
METAR KDRA 312352Z AUTO 23010G18KT 10SM CLR 37/M03 A2982 RMK AO2
SLP045 T03671033 10367 20317 56018





000
SAUS45 KREV 312257
MTRDRA
METAR KDRA 312252Z AUTO 24006KT 10SM CLR 36/M03 A2983 RMK AO2 SLP049
T03561033





000
SAUS45 KREV 312157
MTRDRA
METAR KDRA 312152Z AUTO 27008KT 10SM CLR 36/M04 A2986 RMK AO2 SLP052
T03611044





000
SAUS45 KREV 312057
MTRDRA
METAR KDRA 312052Z AUTO 23010KT 10SM CLR 36/M04 A2988 RMK AO2 SLP061
T03611044 56015





000
SAUS45 KREV 311957
MTRDRA
METAR KDRA 311952Z AUTO VRB05KT 10SM CLR 35/M05 A2989 RMK AO2 SLP066
T03501050





000
SAUS45 KREV 311857
MTRDRA
METAR KDRA 311852Z AUTO 35004KT 10SM CLR 34/M05 A2991 RMK AO2 SLP071
T03391050





000
SAUS45 KREV 311757
MTRDRA
METAR KDRA 311752Z AUTO VRB03KT 10SM CLR 32/M02 A2992 RMK AO2 SLP076
T03221022 10322 20183 50005





000
SAUS45 KREV 311657
MTRDRA
METAR KDRA 311652Z AUTO 23006KT 10SM CLR 30/00 A2993 RMK AO2 SLP080
T03000000





000
SAUS45 KREV 311557
MTRDRA
METAR KDRA 311552Z AUTO 00000KT 10SM CLR 28/M01 A2992 RMK AO2 SLP078
T02781006





000
SAUS45 KREV 311457
MTRDRA
METAR KDRA 311452Z AUTO 00000KT 10SM CLR 23/00 A2991 RMK AO2 SLP077
T02330000 51019





000
SAUS45 KREV 311257
MTRDRA
METAR KDRA 311252Z AUTO 00000KT 10SM CLR 21/M01 A2987 RMK AO2 SLP064
T02061006





000
SAUS45 KREV 311157
MTRDRA
METAR KDRA 311152Z AUTO 00000KT 10SM CLR 21/M01 A2985 RMK AO2 SLP054
T02111006 10306 20211 53010





000
SAUS45 KREV 311057
MTRDRA
METAR KDRA 311052Z AUTO 03008KT 10SM CLR 22/M01 A2983 RMK AO2 SLP046
T02221006





000
SAUS45 KREV 310957
MTRDRA
METAR KDRA 310952Z AUTO 34003KT 10SM CLR 26/M02 A2983 RMK AO2 SLP041
T02611017





000
SAUS45 KREV 310857
MTRDRA
METAR KDRA 310852Z AUTO 36010KT 10SM CLR 25/M03 A2982 RMK AO2 SLP038
T02501033 53010





000
SAUS45 KREV 310757
MTRDRA
METAR KDRA 310752Z AUTO 35005KT 10SM CLR 26/M03 A2980 RMK AO2 SLP033
T02611033 403890183





000
SAUS45 KREV 310657
MTRDRA
METAR KDRA 310652Z AUTO 01007KT 10SM CLR 27/M04 A2979 RMK AO2 SLP028
T02671039





000
SAUS45 KREV 310557
MTRDRA
METAR KDRA 310552Z AUTO 36007KT 10SM CLR 29/M05 A2979 RMK AO2 SLP029
T02941050 10367 20278 58004





000
SAUS45 KREV 310457
MTRDRA
METAR KDRA 310452Z AUTO 12004KT 10SM CLR 29/M07 A2979 RMK AO2 SLP030
T02941067





000
SAUS45 KREV 310356
MTRDRA
METAR KDRA 310352Z AUTO 10003KT 10SM CLR 32/M06 A2980 RMK AO2 SLP037
T03171061





000
SAUS45 KREV 310257
MTRDRA
METAR KDRA 310252Z AUTO 21008KT 10SM CLR 32/M06 A2980 RMK AO2 SLP038
T03221061 55003





    US Dept of Commerce
    National Oceanic and Atmospheric Administration
    National Weather Service
    1325 East West Highway
    Silver Spring, MD 20910
    Page Author: NWS Internet Services Team
Disclaimer
Information Quality
Credits
Glossary
Privacy Policy
Freedom of Information Act (FOIA)
About Us
Career Opportunities